sensor_id;sensor_type;location;lat;lon;timestamp;pressure;altitude;pressure_sealevel;temperature;humidity
77311;BME280;66371;52.714;5.074;2023-07-13T00:01:12;101367.44;;;14.84;100.00
77311;BME280;66371;52.714;5.074;2023-07-13T00:03:38;101366.06;;;14.80;100.00
77311;BME280;66371;52.714;5.074;2023-07-13T00:06:06;101368.13;;;14.78;100.00
77311;BME280;66371;52.714;5.074;2023-07-13T00:08:32;101371.34;;;14.73;100.00
77311;BME280;66371;52.714;5.074;2023-07-13T00:10:58;101373.53;;;14.70;100.00
77311;BME280;66371;52.714;5.074;2023-07-13T00:13:23;101370.50;;;14.65;100.00
77311;BME280;66371;52.714;5.074;2023-07-13T00:15:49;101373.38;;;14.63;100.00
77311;BME280;66371;52.714;5.074;2023-07-13T00:18:14;101364.34;;;14.56;100.00
77311;BME280;66371;52.714;5.074;2023-07-13T00:20:40;101373.41;;;14.55;100.00
77311;BME280;66371;52.714;5.074;2023-07-13T00:23:06;101363.81;;;14.53;100.00
77311;BME280;66371;52.714;5.074;2023-07-13T00:25:32;101359.28;;;14.53;100.00
77311;BME280;66371;52.714;5.074;2023-07-13T00:27:57;101361.31;;;14.51;100.00
77311;BME280;66371;52.714;5.074;2023-07-13T00:30:23;101372.41;;;14.48;100.00
77311;BME280;66371;52.714;5.074;2023-07-13T00:32:48;101364.16;;;14.50;100.00
77311;BME280;66371;52.714;5.074;2023-07-13T00:35:15;101367.88;;;14.49;100.00
77311;BME280;66371;52.714;5.074;2023-07-13T00:37:41;101371.56;;;14.48;100.00
77311;BME280;66371;52.714;5.074;2023-07-13T00:40:07;101369.72;;;14.48;100.00
77311;BME280;66371;52.714;5.074;2023-07-13T00:42:33;101371.09;;;14.44;100.00
77311;BME280;66371;52.714;5.074;2023-07-13T00:47:36;101364.19;;;14.42;100.00
77311;BME280;66371;52.714;5.074;2023-07-13T00:50:02;101365.88;;;14.43;100.00
77311;BME280;66371;52.714;5.074;2023-07-13T00:52:28;101357.66;;;14.44;100.00
77311;BME280;66371;52.714;5.074;2023-07-13T00:54:54;101346.53;;;14.47;100.00
77311;BME280;66371;52.714;5.074;2023-07-13T00:57:20;101358.28;;;14.54;100.00
77311;BME280;66371;52.714;5.074;2023-07-13T00:59:50;101354.38;;;14.57;100.00
77311;BME280;66371;52.714;5.074;2023-07-13T01:02:17;101356.56;;;14.61;100.00
77311;BME280;66371;52.714;5.074;2023-07-13T01:04:43;101361.75;;;14.71;100.00
77311;BME280;66371;52.714;5.074;2023-07-13T01:07:10;101364.75;;;14.76;100.00
77311;BME280;66371;52.714;5.074;2023-07-13T01:09:36;101361.88;;;14.77;100.00
77311;BME280;66371;52.714;5.074;2023-07-13T01:12:01;101343.56;;;14.73;100.00
77311;BME280;66371;52.714;5.074;2023-07-13T01:14:28;101342.53;;;14.82;100.00
77311;BME280;66371;52.714;5.074;2023-07-13T01:16:54;101360.00;;;14.86;100.00
77311;BME280;66371;52.714;5.074;2023-07-13T01:19:38;101339.44;;;14.93;100.00
77311;BME280;66371;52.714;5.074;2023-07-13T01:22:17;101351.19;;;15.00;100.00
77311;BME280;66371;52.714;5.074;2023-07-13T01:24:46;101347.13;;;15.04;100.00
77311;BME280;66371;52.714;5.074;2023-07-13T01:27:14;101353.00;;;15.07;100.00
77311;BME280;66371;52.714;5.074;2023-07-13T01:29:41;101357.50;;;15.15;100.00
77311;BME280;66371;52.714;5.074;2023-07-13T01:32:12;101353.47;;;15.11;100.00
77311;BME280;66371;52.714;5.074;2023-07-13T01:34:38;101357.03;;;15.11;100.00
77311;BME280;66371;52.714;5.074;2023-07-13T01:37:07;101358.34;;;15.15;100.00
77311;BME280;66371;52.714;5.074;2023-07-13T01:39:33;101348.59;;;15.14;100.00
77311;BME280;66371;52.714;5.074;2023-07-13T01:41:58;101362.34;;;15.19;100.00
77311;BME280;66371;52.714;5.074;2023-07-13T01:44:24;101353.63;;;15.17;100.00
77311;BME280;66371;52.714;5.074;2023-07-13T01:46:49;101350.75;;;15.19;100.00
77311;BME280;66371;52.714;5.074;2023-07-13T01:49:15;101353.44;;;15.19;100.00
77311;BME280;66371;52.714;5.074;2023-07-13T01:51:40;101350.44;;;15.14;100.00
77311;BME280;66371;52.714;5.074;2023-07-13T01:54:06;101366.91;;;15.19;100.00
77311;BME280;66371;52.714;5.074;2023-07-13T01:56:31;101354.78;;;15.15;100.00
77311;BME280;66371;52.714;5.074;2023-07-13T01:58:56;101361.03;;;15.15;100.00
77311;BME280;66371;52.714;5.074;2023-07-13T02:01:22;101359.41;;;15.06;100.00
77311;BME280;66371;52.714;5.074;2023-07-13T02:03:47;101363.59;;;15.09;100.00
77311;BME280;66371;52.714;5.074;2023-07-13T02:06:13;101369.16;;;15.07;100.00
77311;BME280;66371;52.714;5.074;2023-07-13T02:08:40;101368.50;;;15.05;100.00
77311;BME280;66371;52.714;5.074;2023-07-13T02:11:06;101367.34;;;15.00;100.00
77311;BME280;66371;52.714;5.074;2023-07-13T02:13:31;101361.81;;;14.93;100.00
77311;BME280;66371;52.714;5.074;2023-07-13T02:15:56;101381.69;;;14.92;100.00
77311;BME280;66371;52.714;5.074;2023-07-13T02:18:22;101382.34;;;14.94;100.00
77311;BME280;66371;52.714;5.074;2023-07-13T02:20:47;101381.53;;;14.86;100.00
77311;BME280;66371;52.714;5.074;2023-07-13T02:23:13;101384.41;;;14.84;100.00
77311;BME280;66371;52.714;5.074;2023-07-13T02:25:39;101379.34;;;14.81;100.00
77311;BME280;66371;52.714;5.074;2023-07-13T02:28:05;101372.34;;;14.72;100.00
77311;BME280;66371;52.714;5.074;2023-07-13T02:30:30;101381.09;;;14.74;100.00
77311;BME280;66371;52.714;5.074;2023-07-13T02:32:56;101381.94;;;14.67;100.00
77311;BME280;66371;52.714;5.074;2023-07-13T02:35:22;101392.88;;;14.73;100.00
77311;BME280;66371;52.714;5.074;2023-07-13T02:37:47;101387.84;;;14.70;100.00
77311;BME280;66371;52.714;5.074;2023-07-13T02:40:13;101389.69;;;14.70;100.00
77311;BME280;66371;52.714;5.074;2023-07-13T02:42:39;101390.69;;;14.69;100.00
77311;BME280;66371;52.714;5.074;2023-07-13T02:45:05;101384.13;;;14.63;100.00
77311;BME280;66371;52.714;5.074;2023-07-13T02:47:32;101389.84;;;14.68;100.00
77311;BME280;66371;52.714;5.074;2023-07-13T02:49:57;101390.53;;;14.62;100.00
77311;BME280;66371;52.714;5.074;2023-07-13T02:52:23;101400.13;;;14.65;100.00
77311;BME280;66371;52.714;5.074;2023-07-13T02:54:48;101407.53;;;14.63;100.00
77311;BME280;66371;52.714;5.074;2023-07-13T02:57:13;101398.78;;;14.61;100.00
77311;BME280;66371;52.714;5.074;2023-07-13T02:59:39;101390.56;;;14.54;100.00
77311;BME280;66371;52.714;5.074;2023-07-13T03:02:04;101397.13;;;14.52;100.00
77311;BME280;66371;52.714;5.074;2023-07-13T03:04:30;101402.19;;;14.47;100.00
77311;BME280;66371;52.714;5.074;2023-07-13T03:06:55;101400.34;;;14.39;100.00
77311;BME280;66371;52.714;5.074;2023-07-13T03:09:24;101396.50;;;14.34;100.00
77311;BME280;66371;52.714;5.074;2023-07-13T03:11:52;101401.53;;;14.37;100.00
77311;BME280;66371;52.714;5.074;2023-07-13T03:14:17;101414.47;;;14.41;100.00
77311;BME280;66371;52.714;5.074;2023-07-13T03:16:43;101401.03;;;14.33;100.00
77311;BME280;66371;52.714;5.074;2023-07-13T03:19:08;101409.44;;;14.38;100.00
77311;BME280;66371;52.714;5.074;2023-07-13T03:21:34;101400.53;;;14.38;100.00
77311;BME280;66371;52.714;5.074;2023-07-13T03:23:59;101407.06;;;14.43;100.00
77311;BME280;66371;52.714;5.074;2023-07-13T03:26:25;101401.84;;;14.42;100.00
77311;BME280;66371;52.714;5.074;2023-07-13T03:28:50;101401.53;;;14.37;100.00
77311;BME280;66371;52.714;5.074;2023-07-13T03:31:19;101406.59;;;14.40;100.00
77311;BME280;66371;52.714;5.074;2023-07-13T03:33:45;101406.72;;;14.46;100.00
77311;BME280;66371;52.714;5.074;2023-07-13T03:36:18;101406.72;;;14.46;100.00
77311;BME280;66371;52.714;5.074;2023-07-13T03:38:48;101414.66;;;14.40;100.00
77311;BME280;66371;52.714;5.074;2023-07-13T03:41:15;101416.66;;;14.38;100.00
77311;BME280;66371;52.714;5.074;2023-07-13T03:43:40;101419.53;;;14.36;100.00
77311;BME280;66371;52.714;5.074;2023-07-13T03:46:06;101419.34;;;14.38;100.00
77311;BME280;66371;52.714;5.074;2023-07-13T03:48:31;101419.19;;;14.39;100.00
77311;BME280;66371;52.714;5.074;2023-07-13T03:50:56;101423.03;;;14.53;100.00
77311;BME280;66371;52.714;5.074;2023-07-13T03:53:22;101415.91;;;14.68;100.00
77311;BME280;66371;52.714;5.074;2023-07-13T03:55:47;101410.88;;;14.73;100.00
77311;BME280;66371;52.714;5.074;2023-07-13T04:00:54;101412.88;;;14.79;100.00
77311;BME280;66371;52.714;5.074;2023-07-13T04:03:19;101422.09;;;14.84;100.00
77311;BME280;66371;52.714;5.074;2023-07-13T04:05:45;101420.91;;;14.87;100.00
77311;BME280;66371;52.714;5.074;2023-07-13T04:08:11;101411.47;;;14.91;100.00
77311;BME280;66371;52.714;5.074;2023-07-13T04:10:36;101411.97;;;14.94;100.00
77311;BME280;66371;52.714;5.074;2023-07-13T04:13:02;101415.09;;;15.06;100.00
77311;BME280;66371;52.714;5.074;2023-07-13T04:15:30;101432.88;;;15.23;100.00
77311;BME280;66371;52.714;5.074;2023-07-13T04:17:56;101436.72;;;15.59;100.00
77311;BME280;66371;52.714;5.074;2023-07-13T04:20:22;101416.81;;;15.91;100.00
77311;BME280;66371;52.714;5.074;2023-07-13T04:22:47;101429.75;;;16.32;98.50
77311;BME280;66371;52.714;5.074;2023-07-13T04:25:13;101434.31;;;16.54;95.76
77311;BME280;66371;52.714;5.074;2023-07-13T04:27:38;101437.38;;;16.95;93.82
77311;BME280;66371;52.714;5.074;2023-07-13T04:30:06;101430.66;;;17.05;91.20
77311;BME280;66371;52.714;5.074;2023-07-13T04:32:31;101436.31;;;17.25;90.50
77311;BME280;66371;52.714;5.074;2023-07-13T04:34:57;101439.56;;;17.49;90.35
77311;BME280;66371;52.714;5.074;2023-07-13T04:37:25;101442.06;;;17.51;90.32
77311;BME280;66371;52.714;5.074;2023-07-13T04:39:50;101442.63;;;17.61;89.81
77311;BME280;66371;52.714;5.074;2023-07-13T04:42:16;101436.22;;;17.33;90.40
77311;BME280;66371;52.714;5.074;2023-07-13T04:44:41;101441.41;;;16.99;92.67
77311;BME280;66371;52.714;5.074;2023-07-13T04:47:07;101442.88;;;16.87;94.48
77311;BME280;66371;52.714;5.074;2023-07-13T04:49:32;101439.88;;;16.67;95.52
77311;BME280;66371;52.714;5.074;2023-07-13T04:51:58;101447.34;;;16.65;96.18
77311;BME280;66371;52.714;5.074;2023-07-13T04:54:23;101446.63;;;16.71;96.40
77311;BME280;66371;52.714;5.074;2023-07-13T04:56:49;101462.63;;;16.87;95.81
77311;BME280;66371;52.714;5.074;2023-07-13T04:59:14;101451.75;;;16.95;96.60
77311;BME280;66371;52.714;5.074;2023-07-13T05:01:39;101462.81;;;17.15;96.05
77311;BME280;66371;52.714;5.074;2023-07-13T05:04:06;101457.56;;;17.28;95.16
77311;BME280;66371;52.714;5.074;2023-07-13T05:06:31;101467.63;;;17.48;95.54
77311;BME280;66371;52.714;5.074;2023-07-13T05:08:57;101460.53;;;17.62;95.37
77311;BME280;66371;52.714;5.074;2023-07-13T05:11:23;101461.88;;;17.73;94.19
77311;BME280;66371;52.714;5.074;2023-07-13T05:13:49;101448.75;;;17.70;93.95
77311;BME280;66371;52.714;5.074;2023-07-13T05:16:14;101471.66;;;17.74;93.64
77311;BME280;66371;52.714;5.074;2023-07-13T05:18:40;101457.50;;;17.72;93.27
77311;BME280;66371;52.714;5.074;2023-07-13T05:21:07;101481.94;;;17.78;93.63
77311;BME280;66371;52.714;5.074;2023-07-13T05:23:34;101487.78;;;17.82;93.69
77311;BME280;66371;52.714;5.074;2023-07-13T05:26:00;101474.13;;;17.69;93.58
77311;BME280;66371;52.714;5.074;2023-07-13T05:28:27;101484.09;;;17.68;94.41
77311;BME280;66371;52.714;5.074;2023-07-13T05:30:53;101469.88;;;17.45;94.48
77311;BME280;66371;52.714;5.074;2023-07-13T05:33:19;101487.94;;;17.59;94.58
77311;BME280;66371;52.714;5.074;2023-07-13T05:35:44;101496.91;;;17.60;95.10
77311;BME280;66371;52.714;5.074;2023-07-13T05:38:10;101491.69;;;17.58;95.34
77311;BME280;66371;52.714;5.074;2023-07-13T05:40:35;101492.97;;;17.62;95.12
77311;BME280;66371;52.714;5.074;2023-07-13T05:43:00;101481.25;;;17.55;95.22
77311;BME280;66371;52.714;5.074;2023-07-13T05:45:26;101493.16;;;17.61;96.18
77311;BME280;66371;52.714;5.074;2023-07-13T05:47:51;101483.94;;;17.55;97.22
77311;BME280;66371;52.714;5.074;2023-07-13T05:50:17;101486.91;;;17.60;96.14
77311;BME280;66371;52.714;5.074;2023-07-13T05:52:43;101492.13;;;17.62;96.58
77311;BME280;66371;52.714;5.074;2023-07-13T05:55:08;101493.81;;;17.63;96.36
77311;BME280;66371;52.714;5.074;2023-07-13T05:57:33;101495.38;;;17.57;95.39
77311;BME280;66371;52.714;5.074;2023-07-13T05:59:59;101499.22;;;17.63;95.59
77311;BME280;66371;52.714;5.074;2023-07-13T06:02:24;101502.56;;;17.65;95.65
77311;BME280;66371;52.714;5.074;2023-07-13T06:04:51;101488.69;;;17.53;95.51
77311;BME280;66371;52.714;5.074;2023-07-13T06:07:16;101495.00;;;17.60;95.97
77311;BME280;66371;52.714;5.074;2023-07-13T06:09:41;101508.91;;;17.72;96.62
77311;BME280;66371;52.714;5.074;2023-07-13T06:12:07;101516.53;;;17.83;95.76
77311;BME280;66371;52.714;5.074;2023-07-13T06:14:32;101512.13;;;17.82;94.96
77311;BME280;66371;52.714;5.074;2023-07-13T06:16:58;101511.13;;;17.83;95.79
77311;BME280;66371;52.714;5.074;2023-07-13T06:19:23;101514.06;;;17.88;95.33
77311;BME280;66371;52.714;5.074;2023-07-13T06:21:48;101524.63;;;17.83;94.52
77311;BME280;66371;52.714;5.074;2023-07-13T06:24:14;101506.28;;;17.64;93.87
77311;BME280;66371;52.714;5.074;2023-07-13T06:26:39;101526.03;;;17.79;94.91
77311;BME280;66371;52.714;5.074;2023-07-13T06:29:04;101534.53;;;17.76;94.77
77311;BME280;66371;52.714;5.074;2023-07-13T06:31:30;101534.94;;;17.58;94.20
77311;BME280;66371;52.714;5.074;2023-07-13T06:33:56;101533.19;;;17.51;94.41
77311;BME280;66371;52.714;5.074;2023-07-13T06:36:21;101540.44;;;17.50;94.00
77311;BME280;66371;52.714;5.074;2023-07-13T06:38:47;101541.91;;;17.52;93.90
77311;BME280;66371;52.714;5.074;2023-07-13T06:41:12;101547.91;;;17.63;92.99
77311;BME280;66371;52.714;5.074;2023-07-13T06:43:37;101551.69;;;17.68;93.03
77311;BME280;66371;52.714;5.074;2023-07-13T06:46:03;101553.13;;;17.64;93.85
77311;BME280;66371;52.714;5.074;2023-07-13T06:48:28;101549.47;;;17.57;95.68
77311;BME280;66371;52.714;5.074;2023-07-13T06:50:54;101553.56;;;17.68;95.60
77311;BME280;66371;52.714;5.074;2023-07-13T06:53:20;101553.69;;;17.60;95.03
77311;BME280;66371;52.714;5.074;2023-07-13T06:55:46;101564.00;;;17.41;95.23
77311;BME280;66371;52.714;5.074;2023-07-13T06:58:12;101561.28;;;17.12;95.63
77311;BME280;66371;52.714;5.074;2023-07-13T07:00:38;101582.81;;;17.20;97.52
77311;BME280;66371;52.714;5.074;2023-07-13T07:03:05;101576.72;;;17.04;93.78
77311;BME280;66371;52.714;5.074;2023-07-13T07:05:30;101564.69;;;16.92;94.65
77311;BME280;66371;52.714;5.074;2023-07-13T07:07:56;101584.59;;;16.76;93.64
77311;BME280;66371;52.714;5.074;2023-07-13T07:10:21;101584.19;;;16.65;94.43
77311;BME280;66371;52.714;5.074;2023-07-13T07:12:47;101582.41;;;16.57;95.28
77311;BME280;66371;52.714;5.074;2023-07-13T07:15:13;101596.91;;;16.56;95.37
77311;BME280;66371;52.714;5.074;2023-07-13T07:17:39;101586.56;;;16.37;94.83
77311;BME280;66371;52.714;5.074;2023-07-13T07:20:05;101586.88;;;16.42;95.02
77311;BME280;66371;52.714;5.074;2023-07-13T07:22:31;101583.16;;;16.43;94.36
77311;BME280;66371;52.714;5.074;2023-07-13T07:24:57;101588.88;;;16.48;93.80
77311;BME280;66371;52.714;5.074;2023-07-13T07:27:23;101580.19;;;16.61;92.45
77311;BME280;66371;52.714;5.074;2023-07-13T07:29:48;101570.16;;;16.69;92.67
77311;BME280;66371;52.714;5.074;2023-07-13T07:32:14;101581.03;;;16.98;91.27
77311;BME280;66371;52.714;5.074;2023-07-13T07:34:39;101590.91;;;17.20;89.79
77311;BME280;66371;52.714;5.074;2023-07-13T07:37:05;101582.94;;;17.41;88.54
77311;BME280;66371;52.714;5.074;2023-07-13T07:39:31;101586.84;;;17.83;87.95
77311;BME280;66371;52.714;5.074;2023-07-13T07:41:56;101589.97;;;18.01;83.86
77311;BME280;66371;52.714;5.074;2023-07-13T07:44:22;101581.31;;;18.26;83.63
77311;BME280;66371;52.714;5.074;2023-07-13T07:46:47;101577.84;;;18.32;82.90
77311;BME280;66371;52.714;5.074;2023-07-13T07:49:13;101580.50;;;18.47;80.04
77311;BME280;66371;52.714;5.074;2023-07-13T07:51:38;101573.88;;;18.70;80.52
77311;BME280;66371;52.714;5.074;2023-07-13T07:54:04;101586.44;;;18.78;78.17
77311;BME280;66371;52.714;5.074;2023-07-13T07:56:30;101581.66;;;18.80;77.54
77311;BME280;66371;52.714;5.074;2023-07-13T07:58:56;101580.50;;;18.89;78.00
77311;BME280;66371;52.714;5.074;2023-07-13T08:01:22;101582.00;;;18.98;78.09
77311;BME280;66371;52.714;5.074;2023-07-13T08:03:47;101580.09;;;18.92;77.69
77311;BME280;66371;52.714;5.074;2023-07-13T08:06:13;101587.28;;;18.78;76.86
77311;BME280;66371;52.714;5.074;2023-07-13T08:08:39;101577.91;;;18.81;78.21
77311;BME280;66371;52.714;5.074;2023-07-13T08:11:06;101563.72;;;18.79;76.76
77311;BME280;66371;52.714;5.074;2023-07-13T08:13:32;101571.72;;;18.87;77.65
77311;BME280;66371;52.714;5.074;2023-07-13T08:15:58;101569.69;;;18.95;78.03
77311;BME280;66371;52.714;5.074;2023-07-13T08:18:24;101577.81;;;19.23;77.65
77311;BME280;66371;52.714;5.074;2023-07-13T08:20:49;101586.72;;;19.45;78.08
77311;BME280;66371;52.714;5.074;2023-07-13T08:23:15;101574.44;;;19.42;77.28
77311;BME280;66371;52.714;5.074;2023-07-13T08:25:42;101578.50;;;19.59;77.52
77311;BME280;66371;52.714;5.074;2023-07-13T08:28:07;101571.16;;;19.60;76.47
77311;BME280;66371;52.714;5.074;2023-07-13T08:30:33;101574.47;;;19.55;76.99
77311;BME280;66371;52.714;5.074;2023-07-13T08:32:58;101586.38;;;19.54;75.21
77311;BME280;66371;52.714;5.074;2023-07-13T08:35:24;101585.53;;;19.54;74.22
77311;BME280;66371;52.714;5.074;2023-07-13T08:37:51;101587.72;;;19.09;72.76
77311;BME280;66371;52.714;5.074;2023-07-13T08:40:17;101572.59;;;18.94;72.47
77311;BME280;66371;52.714;5.074;2023-07-13T08:42:46;101601.19;;;19.24;72.02
77311;BME280;66371;52.714;5.074;2023-07-13T08:45:27;101607.22;;;19.54;70.48
77311;BME280;66371;52.714;5.074;2023-07-13T08:48:21;101602.97;;;19.72;70.66
77311;BME280;66371;52.714;5.074;2023-07-13T08:50:51;101603.44;;;19.89;68.28
77311;BME280;66371;52.714;5.074;2023-07-13T08:53:20;101594.84;;;19.79;68.03
77311;BME280;66371;52.714;5.074;2023-07-13T08:55:46;101588.06;;;20.02;67.60
77311;BME280;66371;52.714;5.074;2023-07-13T08:58:14;101599.06;;;20.41;69.91
77311;BME280;66371;52.714;5.074;2023-07-13T09:01:17;101604.69;;;20.33;69.60
77311;BME280;66371;52.714;5.074;2023-07-13T09:04:25;101596.28;;;20.15;68.82
77311;BME280;66371;52.714;5.074;2023-07-13T09:06:36;101607.53;;;20.12;69.24
77311;BME280;66371;52.714;5.074;2023-07-13T09:12:19;101608.16;;;20.14;69.83
77311;BME280;66371;52.714;5.074;2023-07-13T09:14:49;101625.44;;;20.00;69.12
77311;BME280;66371;52.714;5.074;2023-07-13T09:17:22;101626.28;;;20.07;69.67
77311;BME280;66371;52.714;5.074;2023-07-13T09:20:31;101621.06;;;20.06;69.11
77311;BME280;66371;52.714;5.074;2023-07-13T09:23:02;101624.56;;;19.93;69.54
77311;BME280;66371;52.714;5.074;2023-07-13T09:25:32;101624.75;;;19.85;69.32
77311;BME280;66371;52.714;5.074;2023-07-13T09:28:25;101626.00;;;19.89;67.17
77311;BME280;66371;52.714;5.074;2023-07-13T09:31:04;101626.25;;;20.01;67.77
77311;BME280;66371;52.714;5.074;2023-07-13T09:33:31;101629.09;;;19.80;69.32
77311;BME280;66371;52.714;5.074;2023-07-13T09:35:57;101621.94;;;19.72;66.62
77311;BME280;66371;52.714;5.074;2023-07-13T09:38:28;101621.84;;;19.87;69.15
77311;BME280;66371;52.714;5.074;2023-07-13T09:41:09;101632.50;;;19.95;68.76
77311;BME280;66371;52.714;5.074;2023-07-13T09:44:01;101627.88;;;20.29;68.53
77311;BME280;66371;52.714;5.074;2023-07-13T09:46:26;101628.94;;;20.41;68.18
77311;BME280;66371;52.714;5.074;2023-07-13T09:48:51;101639.41;;;20.04;66.53
77311;BME280;66371;52.714;5.074;2023-07-13T09:51:17;101632.50;;;19.54;67.12
77311;BME280;66371;52.714;5.074;2023-07-13T09:53:43;101642.19;;;19.70;69.29
77311;BME280;66371;52.714;5.074;2023-07-13T09:56:24;101628.56;;;20.04;67.84
77311;BME280;66371;52.714;5.074;2023-07-13T09:58:51;101638.94;;;20.34;67.36
77311;BME280;66371;52.714;5.074;2023-07-13T10:01:31;101645.59;;;20.25;67.50
77311;BME280;66371;52.714;5.074;2023-07-13T10:03:57;101638.34;;;20.32;66.61
77311;BME280;66371;52.714;5.074;2023-07-13T10:06:23;101641.31;;;20.03;67.48
77311;BME280;66371;52.714;5.074;2023-07-13T10:08:52;101640.56;;;20.16;66.74
77311;BME280;66371;52.714;5.074;2023-07-13T10:11:19;101653.88;;;20.64;66.78
77311;BME280;66371;52.714;5.074;2023-07-13T10:13:51;101652.38;;;20.49;65.74
77311;BME280;66371;52.714;5.074;2023-07-13T10:16:19;101656.16;;;20.61;63.80
77311;BME280;66371;52.714;5.074;2023-07-13T10:21:13;101669.06;;;20.52;65.19
77311;BME280;66371;52.714;5.074;2023-07-13T10:23:39;101663.66;;;20.52;64.30
77311;BME280;66371;52.714;5.074;2023-07-13T10:26:13;101658.19;;;20.39;64.06
77311;BME280;66371;52.714;5.074;2023-07-13T10:28:42;101677.78;;;20.22;64.09
77311;BME280;66371;52.714;5.074;2023-07-13T10:31:13;101669.31;;;20.10;65.35
77311;BME280;66371;52.714;5.074;2023-07-13T10:33:39;101679.13;;;20.11;64.73
77311;BME280;66371;52.714;5.074;2023-07-13T10:36:15;101669.84;;;20.27;63.33
77311;BME280;66371;52.714;5.074;2023-07-13T10:38:43;101694.97;;;20.35;62.99
77311;BME280;66371;52.714;5.074;2023-07-13T10:41:15;101684.44;;;20.19;62.34
77311;BME280;66371;52.714;5.074;2023-07-13T10:43:45;101681.63;;;20.47;62.64
77311;BME280;66371;52.714;5.074;2023-07-13T10:46:14;101685.63;;;20.57;62.14
77311;BME280;66371;52.714;5.074;2023-07-13T10:48:42;101682.28;;;20.55;63.17
77311;BME280;66371;52.714;5.074;2023-07-13T10:51:10;101688.13;;;20.59;62.57
77311;BME280;66371;52.714;5.074;2023-07-13T10:53:38;101692.75;;;20.65;62.21
77311;BME280;66371;52.714;5.074;2023-07-13T10:56:19;101705.13;;;20.80;61.55
77311;BME280;66371;52.714;5.074;2023-07-13T10:59:01;101686.28;;;20.66;61.80
77311;BME280;66371;52.714;5.074;2023-07-13T11:01:39;101688.75;;;20.54;59.96
77311;BME280;66371;52.714;5.074;2023-07-13T11:04:05;101704.72;;;20.30;60.56
77311;BME280;66371;52.714;5.074;2023-07-13T11:06:37;101708.38;;;20.50;61.09
77311;BME280;66371;52.714;5.074;2023-07-13T11:09:34;101701.94;;;20.64;59.57
77311;BME280;66371;52.714;5.074;2023-07-13T11:12:06;101706.84;;;20.34;59.98
77311;BME280;66371;52.714;5.074;2023-07-13T11:14:38;101712.03;;;20.23;61.38
77311;BME280;66371;52.714;5.074;2023-07-13T11:20:19;101714.84;;;20.49;61.00
77311;BME280;66371;52.714;5.074;2023-07-13T11:22:51;101706.66;;;20.96;62.12
77311;BME280;66371;52.714;5.074;2023-07-13T11:27:49;101711.69;;;20.45;59.72
77311;BME280;66371;52.714;5.074;2023-07-13T11:35:46;101720.53;;;20.54;60.24
77311;BME280;66371;52.714;5.074;2023-07-13T11:38:45;101723.41;;;20.46;59.80
77311;BME280;66371;52.714;5.074;2023-07-13T11:43:41;101730.06;;;20.37;60.83
77311;BME280;66371;52.714;5.074;2023-07-13T11:46:33;101725.50;;;20.50;61.49
77311;BME280;66371;52.714;5.074;2023-07-13T11:48:59;101724.91;;;20.55;61.60
77311;BME280;66371;52.714;5.074;2023-07-13T11:51:30;101736.06;;;20.79;60.76
77311;BME280;66371;52.714;5.074;2023-07-13T11:54:01;101733.75;;;20.83;61.09
77311;BME280;66371;52.714;5.074;2023-07-13T11:56:27;101738.13;;;20.64;60.52
77311;BME280;66371;52.714;5.074;2023-07-13T11:58:56;101730.63;;;20.86;61.90
77311;BME280;66371;52.714;5.074;2023-07-13T12:01:28;101740.00;;;20.77;59.95
77311;BME280;66371;52.714;5.074;2023-07-13T12:03:59;101725.75;;;20.62;61.10
77311;BME280;66371;52.714;5.074;2023-07-13T12:06:29;101730.38;;;20.68;61.74
77311;BME280;66371;52.714;5.074;2023-07-13T12:09:03;101728.84;;;20.52;61.26
77311;BME280;66371;52.714;5.074;2023-07-13T12:11:41;101721.59;;;20.72;61.70
77311;BME280;66371;52.714;5.074;2023-07-13T12:14:14;101726.41;;;20.70;60.86
77311;BME280;66371;52.714;5.074;2023-07-13T12:16:40;101725.69;;;20.42;61.86
77311;BME280;66371;52.714;5.074;2023-07-13T12:19:17;101722.00;;;20.69;61.51
77311;BME280;66371;52.714;5.074;2023-07-13T12:21:43;101720.16;;;20.76;61.12
77311;BME280;66371;52.714;5.074;2023-07-13T12:24:16;101735.69;;;20.35;61.06
77311;BME280;66371;52.714;5.074;2023-07-13T12:26:42;101731.06;;;20.36;62.31
77311;BME280;66371;52.714;5.074;2023-07-13T12:29:15;101735.81;;;20.68;62.44
77311;BME280;66371;52.714;5.074;2023-07-13T12:31:43;101741.41;;;20.53;63.56
77311;BME280;66371;52.714;5.074;2023-07-13T12:34:17;101747.09;;;20.58;63.25
77311;BME280;66371;52.714;5.074;2023-07-13T12:36:51;101741.94;;;20.36;62.11
77311;BME280;66371;52.714;5.074;2023-07-13T12:39:20;101744.13;;;20.53;63.38
77311;BME280;66371;52.714;5.074;2023-07-13T12:41:49;101737.09;;;20.78;63.13
77311;BME280;66371;52.714;5.074;2023-07-13T12:44:18;101738.88;;;21.19;63.23
77311;BME280;66371;52.714;5.074;2023-07-13T12:46:53;101730.50;;;21.07;62.03
77311;BME280;66371;52.714;5.074;2023-07-13T12:49:23;101730.72;;;21.32;61.92
77311;BME280;66371;52.714;5.074;2023-07-13T12:51:57;101731.56;;;21.39;60.27
77311;BME280;66371;52.714;5.074;2023-07-13T12:54:24;101739.31;;;21.22;60.43
77311;BME280;66371;52.714;5.074;2023-07-13T12:56:51;101732.22;;;21.41;62.10
77311;BME280;66371;52.714;5.074;2023-07-13T12:59:21;101736.59;;;21.35;62.47
77311;BME280;66371;52.714;5.074;2023-07-13T13:01:48;101737.81;;;21.07;61.52
77311;BME280;66371;52.714;5.074;2023-07-13T13:04:15;101720.28;;;21.22;62.94
77311;BME280;66371;52.714;5.074;2023-07-13T13:06:41;101739.91;;;21.05;61.67
77311;BME280;66371;52.714;5.074;2023-07-13T13:09:13;101750.06;;;20.83;61.50
77311;BME280;66371;52.714;5.074;2023-07-13T13:11:39;101752.06;;;20.55;63.08
77311;BME280;66371;52.714;5.074;2023-07-13T13:14:05;101734.69;;;20.43;62.27
77311;BME280;66371;52.714;5.074;2023-07-13T13:19:16;101753.09;;;20.47;62.28